Time;durP1;ratioP1;P1;durP2;ratioP2;P2;SDS_P1;SDS_P2;PMS_P1;PMS_P2;Temp;Humidity;BMP_temperature;BMP_pressure;BME280_temperature;BME280_humidity;BME280_pressure;Samples;Min_cycle;Max_cycle;Signal;HPM_P1;HPM_P2
2023/03/23 00:02:15;;;;;;;14.43;9.85;;;;;;;11.34;50.03;99004.41;4269298;33;33335;-95
2023/03/23 00:04:42;;;;;;;17.25;10.73;;;;;;;11.08;50.83;99001.63;4238001;33;34511;-85
2023/03/23 00:07:08;;;;;;;16.00;11.00;;;;;;;11.33;50.29;99001.81;4251120;33;33724;-96
2023/03/23 00:09:41;;;;;;;16.62;10.05;;;;;;;11.33;50.02;99001.81;4251191;33;33810;-95
2023/03/23 00:12:08;;;;;;;19.98;10.80;;;;;;;11.31;50.32;98998.31;4261268;33;33568;-85
2023/03/23 00:14:40;;;;;;;17.45;11.00;;;;;;;11.34;50.04;99001.81;4249984;33;34729;-96
2023/03/23 00:17:10;;;;;;;17.62;10.43;;;;;;;11.35;49.85;98994.91;4246269;33;33412;-87
2023/03/23 00:19:51;;;;;;;14.85;10.50;;;;;;;11.35;50.04;99005.28;4248898;33;34283;-94
2023/03/23 00:22:20;;;;;;;14.30;10.02;;;;;;;11.47;49.72;98986.31;4268732;33;33554;-96
2023/03/23 00:24:50;;;;;;;16.83;10.60;;;;;;;11.19;50.35;98989.59;4264635;33;32563;-96
2023/03/23 00:27:17;;;;;;;19.05;10.77;;;;;;;11.13;50.58;98993.88;4257980;33;33030;-95
2023/03/23 00:29:45;;;;;;;18.12;12.10;;;;;;;11.17;50.30;98987.84;4248393;33;33225;-89
2023/03/23 00:32:14;;;;;;;16.77;11.07;;;;;;;11.08;50.70;98990.38;4266929;33;33057;-96
2023/03/23 00:34:43;;;;;;;16.00;10.30;;;;;;;11.03;50.77;98987.75;4262141;33;32761;-85
2023/03/23 00:37:09;;;;;;;15.02;11.30;;;;;;;11.09;50.43;98982.59;4268130;33;34217;-92
2023/03/23 00:39:37;;;;;;;16.02;11.15;;;;;;;10.98;50.84;98986.81;4261447;33;34711;-94
2023/03/23 00:42:04;;;;;;;15.77;10.38;;;;;;;10.96;51.00;98985.97;4274397;33;33874;-88
2023/03/23 00:44:34;;;;;;;15.57;10.23;;;;;;;11.05;50.72;98978.25;4251738;33;32087;-96
2023/03/23 00:47:02;;;;;;;16.87;11.27;;;;;;;10.96;50.62;98981.63;4256881;33;34110;-88
2023/03/23 00:49:34;;;;;;;17.83;11.57;;;;;;;10.94;50.87;98985.06;4262492;33;34686;-93
2023/03/23 00:52:01;;;;;;;15.43;10.55;;;;;;;10.90;50.74;98985.91;4261866;33;33560;-94
2023/03/23 00:54:28;;;;;;;18.02;11.20;;;;;;;10.96;50.74;98985.97;4248832;33;34204;-96
2023/03/23 00:56:56;;;;;;;16.30;10.02;;;;;;;10.77;51.13;98973.69;4240324;33;34080;-89
2023/03/23 00:59:23;;;;;;;13.98;10.25;;;;;;;10.96;50.62;98979.03;4259768;33;33319;-91
2023/03/23 01:01:51;;;;;;;17.60;11.82;;;;;;;10.94;50.32;98974.69;4245087;33;33405;-96
2023/03/23 01:04:18;;;;;;;17.00;11.18;;;;;;;10.95;50.19;98969.53;4236530;33;32744;-96
2023/03/23 01:06:45;;;;;;;17.37;10.52;;;;;;;10.90;50.26;98962.56;4263245;33;34150;-93
2023/03/23 01:09:16;;;;;;;17.25;11.10;;;;;;;10.85;50.65;98966.84;4253178;33;34655;-85
2023/03/23 01:11:43;;;;;;;16.67;10.50;;;;;;;10.82;50.56;98959.91;4238750;33;34142;-92
2023/03/23 01:14:11;;;;;;;18.48;10.55;;;;;;;10.81;50.54;98965.94;4260125;33;33365;-88
2023/03/23 01:16:38;;;;;;;16.67;10.27;;;;;;;10.86;50.57;98965.97;4247496;33;34178;-89
2023/03/23 01:19:04;;;;;;;16.02;10.63;;;;;;;10.81;50.85;98962.50;4248889;33;34582;-95
2023/03/23 01:21:31;;;;;;;15.30;9.55;;;;;;;10.80;50.83;98959.03;4255954;33;33443;-93
2023/03/23 01:23:57;;;;;;;16.67;10.05;;;;;;;10.81;50.62;98962.50;4260271;33;34668;-93
2023/03/23 01:26:26;;;;;;;17.60;10.15;;;;;;;10.70;50.61;98958.06;4260562;33;32864;-86
2023/03/23 01:28:53;;;;;;;14.68;9.60;;;;;;;10.63;50.74;98953.69;4258149;33;33567;-93
2023/03/23 01:31:22;;;;;;;14.25;9.07;;;;;;;10.69;50.69;98953.75;4261041;33;33434;-86
2023/03/23 01:33:52;;;;;;;14.80;9.82;;;;;;;10.78;50.42;98941.72;4263197;33;33953;-93
2023/03/23 01:36:22;;;;;;;13.38;9.13;;;;;;;10.73;50.36;98951.19;4275388;33;33952;-92
2023/03/23 01:38:50;;;;;;;13.85;9.35;;;;;;;10.54;50.69;98956.22;4247228;33;33788;-92
2023/03/23 01:41:18;;;;;;;14.90;9.25;;;;;;;10.66;50.37;98956.31;4265065;33;34213;-89
2023/03/23 01:43:55;;;;;;;15.13;9.23;;;;;;;10.59;50.47;98954.50;4243546;33;33584;-94
2023/03/23 01:46:22;;;;;;;12.60;8.40;;;;;;;10.56;50.79;98953.62;4242595;33;33736;-87
2023/03/23 01:48:50;;;;;;;14.52;8.93;;;;;;;10.55;50.55;98949.28;4249708;33;33694;-93
2023/03/23 01:51:17;;;;;;;14.65;8.68;;;;;;;10.49;50.80;98955.28;4253019;33;32751;-94
2023/03/23 01:53:55;;;;;;;14.32;8.98;;;;;;;10.44;50.90;98947.47;4261576;33;33616;-94
2023/03/23 01:56:24;;;;;;;14.73;8.98;;;;;;;10.53;50.83;98946.69;4261012;33;33544;-86
2023/03/23 01:58:52;;;;;;;11.05;7.15;;;;;;;10.48;50.94;98948.34;4236934;33;33260;-91
2023/03/23 02:01:21;;;;;;;13.68;8.32;;;;;;;10.51;50.72;98950.13;4247343;33;34241;-91
2023/03/23 02:03:53;;;;;;;14.68;8.98;;;;;;;10.53;50.37;98944.09;4252017;33;33877;-87
2023/03/23 02:06:20;;;;;;;12.65;7.85;;;;;;;10.48;50.52;98948.34;4252152;33;33435;-87
2023/03/23 02:08:52;;;;;;;17.27;8.82;;;;;;;10.42;50.62;98940.53;4248382;33;34077;-90
2023/03/23 02:11:21;;;;;;;15.18;7.78;;;;;;;10.32;50.76;98944.75;4249793;33;33198;-85
2023/03/23 02:13:48;;;;;;;13.93;8.55;;;;;;;10.37;50.86;98942.19;4247672;33;33099;-93
2023/03/23 02:16:30;;;;;;;12.02;7.03;;;;;;;10.29;50.97;98944.72;4251734;33;34051;-91
2023/03/23 02:19:12;;;;;;;13.75;7.62;;;;;;;10.44;50.52;98949.19;4262015;33;33714;-92
2023/03/23 02:22:00;;;;;;;10.02;7.30;;;;;;;10.23;51.21;98950.69;4250068;33;33497;-86
2023/03/23 02:25:09;;;;;;;13.85;7.72;;;;;;;10.39;50.79;98956.06;4248267;33;34335;-89
2023/03/23 02:27:47;;;;;;;12.15;7.40;;;;;;;10.19;50.87;98960.97;4266387;33;34639;-92
2023/03/23 02:30:23;;;;;;;11.52;7.05;;;;;;;10.31;50.61;98944.75;4260696;33;32419;-95
2023/03/23 02:33:33;;;;;;;12.20;8.57;;;;;;;10.12;51.09;98949.69;4269678;33;33009;-95
2023/03/23 02:36:03;;;;;;;12.15;7.53;;;;;;;10.16;51.26;98954.06;4248733;33;33589;-90
2023/03/23 02:38:43;;;;;;;11.90;8.05;;;;;;;9.89;52.14;98964.97;4252845;33;34038;-95
2023/03/23 02:41:11;;;;;;;12.60;7.37;;;;;;;10.10;51.75;98955.69;4270666;33;34083;-94
2023/03/23 02:43:40;;;;;;;13.80;7.87;;;;;;;10.08;51.62;98966.06;4253759;33;34113;-95
2023/03/23 02:46:10;;;;;;;12.95;8.48;;;;;;;10.04;51.77;98958.22;4257642;33;34359;-92
2023/03/23 02:48:38;;;;;;;13.68;8.60;;;;;;;9.87;52.05;98958.03;4255746;33;31019;-96
2023/03/23 02:51:06;;;;;;;13.30;8.10;;;;;;;9.77;52.50;98966.53;4257252;33;34786;-94
2023/03/23 02:53:34;;;;;;;13.80;7.95;;;;;;;9.93;52.13;98958.97;4250856;33;33551;-92
2023/03/23 02:56:02;;;;;;;11.45;8.00;;;;;;;9.99;51.82;98958.16;4270659;33;33426;-92
2023/03/23 02:58:30;;;;;;;13.45;8.43;;;;;;;9.91;52.13;98957.22;4270249;33;33363;-91
2023/03/23 03:00:58;;;;;;;13.77;8.48;;;;;;;10.00;51.95;98962.53;4265758;33;33758;-89
2023/03/23 03:03:28;;;;;;;12.63;8.25;;;;;;;10.08;51.60;98966.06;4262094;33;32993;-91
2023/03/23 03:06:01;;;;;;;12.20;8.30;;;;;;;10.02;51.73;98959.94;4273856;33;33691;-94
2023/03/23 03:08:39;;;;;;;13.27;8.17;;;;;;;9.95;51.92;98970.22;4266078;33;34099;-95
2023/03/23 03:11:11;;;;;;;14.87;8.60;;;;;;;9.98;51.63;98965.06;4251118;33;33991;-92
2023/03/23 03:13:41;;;;;;;13.55;8.65;;;;;;;10.05;51.48;98966.03;4252419;33;32600;-86
2023/03/23 03:16:25;;;;;;;14.95;9.35;;;;;;;10.06;51.47;98967.75;4258400;33;33202;-95
2023/03/23 03:19:00;;;;;;;16.00;10.18;;;;;;;9.94;51.93;98959.84;4265181;33;33905;-94
2023/03/23 03:21:30;;;;;;;14.55;9.88;;;;;;;9.95;52.05;98958.97;4250097;33;34293;-94
2023/03/23 03:24:00;;;;;;;15.52;9.45;;;;;;;9.96;51.86;98961.62;4247825;33;34083;-95
2023/03/23 03:26:30;;;;;;;14.73;9.63;;;;;;;9.96;52.07;98968.47;4255413;33;34695;-95
2023/03/23 03:28:57;;;;;;;15.63;9.85;;;;;;;9.82;52.38;98968.34;4254890;33;33975;-86
2023/03/23 03:31:32;;;;;;;16.35;11.20;;;;;;;9.79;52.58;98970.00;4259222;33;33838;-95
2023/03/23 03:34:01;;;;;;;16.62;10.93;;;;;;;9.86;52.76;98969.25;4225423;33;32701;-96
2023/03/23 03:36:34;;;;;;;17.37;11.38;;;;;;;9.80;53.08;98976.91;4255693;33;32583;-96
2023/03/23 03:39:07;;;;;;;17.70;11.93;;;;;;;9.87;52.85;98981.34;4247363;33;33352;-95
2023/03/23 03:41:38;;;;;;;17.80;12.15;;;;;;;9.82;53.17;98978.69;4239181;33;32851;-92
2023/03/23 03:44:06;;;;;;;21.10;12.50;;;;;;;9.82;53.22;98975.22;4248566;33;32464;-87
2023/03/23 03:46:34;;;;;;;18.08;12.15;;;;;;;9.81;53.12;98968.28;4249256;33;32971;-96
2023/03/23 03:49:03;;;;;;;18.92;11.88;;;;;;;9.91;52.72;98978.78;4249887;33;32911;-96
2023/03/23 03:51:30;;;;;;;20.70;12.68;;;;;;;9.86;52.83;98977.88;4251071;33;33736;-96
2023/03/23 03:53:57;;;;;;;19.80;12.57;;;;;;;9.90;52.66;98983.97;4253039;33;33342;-96
2023/03/23 03:56:24;;;;;;;18.62;11.73;;;;;;;9.92;52.78;98983.09;4265347;33;33335;-93
2023/03/23 03:58:52;;;;;;;19.02;12.68;;;;;;;9.80;53.04;98988.16;4251464;33;33973;-94
2023/03/23 04:01:22;;;;;;;18.85;12.65;;;;;;;9.73;52.99;98991.50;4245502;33;34032;-87
2023/03/23 04:03:50;;;;;;;18.67;12.80;;;;;;;9.77;53.01;98988.09;4264446;33;33035;-94
2023/03/23 04:06:18;;;;;;;20.58;12.52;;;;;;;9.70;53.17;98989.75;4259215;33;33733;-86
2023/03/23 04:08:45;;;;;;;17.50;11.95;;;;;;;9.75;53.07;98982.03;4238853;33;33545;-86
2023/03/23 04:11:14;;;;;;;18.42;12.82;;;;;;;9.72;52.88;98988.03;4262055;33;33944;-88
2023/03/23 04:13:41;;;;;;;18.30;12.85;;;;;;;9.66;53.12;98992.25;4247143;33;32580;-93
2023/03/23 04:16:08;;;;;;;18.35;13.25;;;;;;;9.55;53.59;98993.88;4238698;33;33240;-92
2023/03/23 04:18:38;;;;;;;20.45;13.32;;;;;;;9.52;53.96;98994.69;4260681;33;35244;-93
2023/03/23 04:21:07;;;;;;;17.85;12.80;;;;;;;9.56;53.68;98993.00;4248992;33;33322;-94
2023/03/23 04:23:35;;;;;;;18.10;12.63;;;;;;;9.60;53.58;98990.47;4252335;33;33236;-92
2023/03/23 04:26:03;;;;;;;18.70;13.20;;;;;;;9.62;53.45;98988.78;4250898;33;33651;-94
2023/03/23 04:28:33;;;;;;;18.90;12.65;;;;;;;9.63;53.21;98987.94;4274536;33;34709;-90
2023/03/23 04:31:02;;;;;;;19.98;12.35;;;;;;;9.67;53.21;98994.87;4259240;33;33478;-94
2023/03/23 04:33:30;;;;;;;21.27;14.05;;;;;;;9.63;53.25;98997.41;4264575;33;33762;-92
2023/03/23 04:36:00;;;;;;;20.35;13.70;;;;;;;9.54;53.58;98998.12;4260358;33;32811;-93
2023/03/23 04:38:29;;;;;;;19.95;13.73;;;;;;;9.54;53.68;98995.56;4241299;33;33069;-93
2023/03/23 04:40:56;;;;;;;20.88;13.80;;;;;;;9.63;53.36;98993.09;4274367;33;33802;-88
2023/03/23 04:43:24;;;;;;;20.80;13.93;;;;;;;9.62;53.45;98991.38;4261654;33;31366;-86
2023/03/23 04:45:56;;;;;;;22.60;14.90;;;;;;;9.69;53.20;98993.16;4237426;33;33913;-94
2023/03/23 04:48:29;;;;;;;21.40;13.73;;;;;;;9.70;53.17;98994.94;4257279;33;33443;-89
2023/03/23 04:50:59;;;;;;;20.80;14.25;;;;;;;9.66;53.29;98994.84;4252351;33;33820;-91
2023/03/23 04:53:28;;;;;;;21.92;14.20;;;;;;;9.54;53.48;98982.63;4258860;33;33084;-96
2023/03/23 04:55:55;;;;;;;20.30;13.55;;;;;;;9.46;53.94;98992.84;4258176;33;33801;-94
2023/03/23 04:58:24;;;;;;;21.23;13.65;;;;;;;9.48;54.09;98988.59;4258953;33;33343;-88
2023/03/23 05:01:04;;;;;;;18.55;13.40;;;;;;;9.59;53.94;98988.75;4239332;33;33964;-88
2023/03/23 05:03:46;;;;;;;20.50;13.88;;;;;;;9.62;53.87;98993.97;4284801;33;33353;-96
2023/03/23 05:06:13;;;;;;;18.65;13.68;;;;;;;9.69;53.55;99000.06;4251125;33;33529;-95
2023/03/23 05:08:40;;;;;;;18.80;13.07;;;;;;;9.70;53.57;98994.94;4247364;33;34024;-92
2023/03/23 05:11:08;;;;;;;21.05;13.75;;;;;;;9.72;53.62;99000.97;4249922;33;34350;-96
2023/03/23 05:13:37;;;;;;;18.95;14.02;;;;;;;9.68;54.16;99009.56;4260333;33;33467;-93
2023/03/23 05:16:06;;;;;;;20.98;15.18;;;;;;;9.71;54.29;99006.16;4251677;33;33762;-92
2023/03/23 05:18:33;;;;;;;23.12;14.30;;;;;;;9.84;54.33;99004.59;4249467;33;32800;-95
2023/03/23 05:21:04;;;;;;;19.77;14.23;;;;;;;9.97;53.98;99003.91;4249624;33;33942;-96
2023/03/23 05:23:33;;;;;;;21.45;14.07;;;;;;;10.03;53.58;99003.97;4250817;33;33272;-94
2023/03/23 05:26:02;;;;;;;21.77;14.30;;;;;;;10.26;52.95;99006.84;4271606;33;32070;-90
2023/03/23 05:28:30;;;;;;;21.60;14.18;;;;;;;10.23;52.93;99007.69;4273574;33;34811;-92
2023/03/23 05:30:57;;;;;;;21.00;13.40;;;;;;;10.26;53.25;99000.81;4250033;33;33964;-95
2023/03/23 05:33:24;;;;;;;20.85;13.88;;;;;;;10.38;53.06;99000.94;4261638;33;34286;-88
2023/03/23 05:35:51;;;;;;;18.85;12.32;;;;;;;10.46;52.69;99009.69;4241708;33;32951;-93
2023/03/23 05:38:18;;;;;;;20.10;13.55;;;;;;;10.61;52.90;98998.62;4240555;33;34142;-94
2023/03/23 05:40:44;;;;;;;22.60;14.27;;;;;;;10.63;53.09;98999.47;4275219;33;33351;-89
2023/03/23 05:43:15;;;;;;;22.77;14.57;;;;;;;10.74;52.66;98990.09;4264702;33;34223;-88
2023/03/23 05:45:46;;;;;;;21.55;14.60;;;;;;;10.95;51.96;98989.41;4248657;33;33106;-93
2023/03/23 05:48:13;;;;;;;23.10;14.55;;;;;;;10.95;52.10;98990.28;4251795;33;33817;-89
2023/03/23 05:50:40;;;;;;;23.17;15.02;;;;;;;10.79;52.99;98982.34;4247450;33;33137;-96
2023/03/23 05:53:07;;;;;;;23.92;13.82;;;;;;;10.81;52.93;98991.03;4253608;33;33976;-95
2023/03/23 05:55:50;;;;;;;21.37;13.35;;;;;;;11.06;52.46;98987.78;4257402;33;33845;-94
2023/03/23 05:58:37;;;;;;;20.35;12.73;;;;;;;11.03;52.57;98979.09;4242139;33;33085;-95
2023/03/23 06:01:24;;;;;;;22.00;13.25;;;;;;;11.28;51.91;98983.59;4268748;33;33515;-95
2023/03/23 06:03:53;;;;;;;20.73;13.65;;;;;;;11.28;51.57;98988.78;4241115;33;33162;-96
2023/03/23 06:06:20;;;;;;;22.70;13.52;;;;;;;11.38;51.30;98985.41;4273855;33;32823;-93
2023/03/23 06:08:50;;;;;;;24.55;14.13;;;;;;;11.58;50.45;98982.06;4261596;33;34428;-92
2023/03/23 06:11:18;;;;;;;21.62;13.55;;;;;;;11.49;50.58;98990.66;4243438;33;34749;-95
2023/03/23 06:13:45;;;;;;;27.17;12.73;;;;;;;11.40;51.02;98986.28;4246134;33;34327;-95
2023/03/23 06:16:12;;;;;;;18.87;11.40;;;;;;;11.35;51.18;98990.56;4269811;33;33268;-92
2023/03/23 06:19:00;;;;;;;17.83;11.82;;;;;;;11.45;50.94;98983.72;4271296;33;34575;-96
2023/03/23 06:21:27;;;;;;;16.40;11.02;;;;;;;11.51;50.34;98988.94;4265218;33;33423;-94
2023/03/23 06:23:55;;;;;;;16.45;10.75;;;;;;;11.54;50.12;98981.16;4281144;33;33346;-93
2023/03/23 06:26:49;;;;;;;25.67;12.48;;;;;;;11.71;49.84;98976.09;4288397;33;33364;-92
2023/03/23 06:29:17;;;;;;;21.02;13.90;;;;;;;11.68;50.84;98981.25;4252278;33;32834;-89
2023/03/23 06:31:46;;;;;;;22.15;14.70;;;;;;;11.95;50.76;98977.94;4253124;33;32305;-93
2023/03/23 06:34:13;;;;;;;19.30;13.98;;;;;;;11.87;50.92;98974.47;4264487;33;33238;-92
2023/03/23 06:36:44;;;;;;;24.05;14.38;;;;;;;11.90;50.91;98975.34;4218042;33;33463;-91
2023/03/23 06:39:12;;;;;;;19.20;13.38;;;;;;;11.96;50.88;98977.09;4257729;33;34594;-88
2023/03/23 06:41:42;;;;;;;25.25;14.57;;;;;;;12.11;50.22;98979.75;4280507;33;33266;-96
2023/03/23 06:44:12;;;;;;;19.15;13.45;;;;;;;12.26;50.03;98983.25;4267026;33;33239;-91
2023/03/23 06:46:41;;;;;;;21.48;13.77;;;;;;;12.37;49.72;98982.41;4264899;33;33620;-92
2023/03/23 06:49:12;;;;;;;19.12;12.65;;;;;;;12.46;49.14;98980.69;4255637;33;34033;-86
2023/03/23 06:51:39;;;;;;;22.67;12.37;;;;;;;12.53;48.63;98993.72;4247437;33;33167;-88
2023/03/23 06:54:06;;;;;;;21.25;14.20;;;;;;;12.41;49.64;98988.50;4250109;33;33424;-92
2023/03/23 06:56:35;;;;;;;21.30;13.35;;;;;;;12.31;49.84;98999.72;4251017;33;34902;-90
2023/03/23 06:59:03;;;;;;;21.48;12.80;;;;;;;12.64;49.34;98992.00;4239849;33;32846;-93
2023/03/23 07:01:29;;;;;;;26.20;13.82;;;;;;;12.51;49.52;98995.47;4250307;33;33991;-91
2023/03/23 07:03:57;;;;;;;17.42;11.43;;;;;;;12.40;48.79;98991.97;4262839;33;33507;-90
2023/03/23 07:06:24;;;;;;;23.65;12.57;;;;;;;12.95;48.48;98997.22;4261157;33;34376;-90
2023/03/23 07:08:54;;;;;;;18.15;11.65;;;;;;;12.85;47.75;98996.38;4260945;33;33307;-91
2023/03/23 07:11:21;;;;;;;22.62;12.30;;;;;;;13.00;47.04;99002.47;4249708;33;32074;-92
2023/03/23 07:13:49;;;;;;;16.92;11.20;;;;;;;13.20;46.62;98986.84;4261318;33;33883;-91
2023/03/23 07:16:17;;;;;;;13.88;10.20;;;;;;;12.92;47.29;99002.47;4249284;33;34145;-92
2023/03/23 07:18:44;;;;;;;18.02;10.65;;;;;;;13.24;46.09;98992.06;4260367;33;34188;-89
2023/03/23 07:21:11;;;;;;;15.20;9.40;;;;;;;13.18;46.71;98996.38;4246629;33;32604;-87
2023/03/23 07:23:39;;;;;;;17.77;10.15;;;;;;;13.39;45.46;98999.00;4258461;33;32924;-87
2023/03/23 07:26:07;;;;;;;16.67;9.18;;;;;;;13.20;45.80;98992.91;4235229;33;33472;-87
2023/03/23 07:28:33;;;;;;;14.55;8.65;;;;;;;13.77;44.14;99009.34;4258738;33;34656;-87
2023/03/23 07:31:01;;;;;;;15.93;8.48;;;;;;;13.73;44.37;99004.16;4258722;33;32958;-88
2023/03/23 07:33:27;;;;;;;17.27;9.38;;;;;;;13.62;44.04;99006.78;4246997;33;34259;-93
2023/03/23 07:35:58;;;;;;;14.70;7.93;;;;;;;13.75;44.77;99002.37;4247231;33;33522;-86
2023/03/23 07:38:27;;;;;;;13.60;7.37;;;;;;;13.90;43.63;99011.91;4258937;33;34143;-87
2023/03/23 07:40:54;;;;;;;15.77;8.02;;;;;;;14.23;42.57;99006.56;4258058;33;34152;-92
2023/03/23 07:43:20;;;;;;;11.88;7.50;;;;;;;14.31;42.88;99009.13;4235373;33;33866;-87
2023/03/23 07:45:47;;;;;;;11.98;8.48;;;;;;;14.41;41.74;99016.06;4257604;33;87104;-87
2023/03/23 07:48:14;;;;;;;14.93;8.57;;;;;;;14.43;42.45;99011.66;4237536;33;34377;-91
2023/03/23 07:50:41;;;;;;;13.88;7.32;;;;;;;14.54;41.69;99004.69;4249120;33;34246;-93
2023/03/23 07:53:08;;;;;;;18.65;8.40;;;;;;;14.80;41.15;99009.75;4261109;33;33481;-91
2023/03/23 07:55:35;;;;;;;15.10;8.15;;;;;;;14.93;40.72;99005.31;4261018;33;33454;-87
2023/03/23 07:58:02;;;;;;;16.17;8.68;;;;;;;15.05;40.74;99006.97;4249321;33;33987;-87
2023/03/23 08:00:29;;;;;;;13.98;8.75;;;;;;;15.32;40.45;99008.47;4237411;33;33256;-86
2023/03/23 08:02:57;;;;;;;17.12;9.18;;;;;;;15.26;40.09;99014.62;4248902;33;32685;-89
2023/03/23 08:05:26;;;;;;;14.20;8.73;;;;;;;15.40;40.17;99011.88;4249098;33;33055;-92
2023/03/23 08:07:54;;;;;;;17.73;9.15;;;;;;;15.55;39.74;99011.75;4249365;33;33451;-93
2023/03/23 08:10:22;;;;;;;14.30;8.45;;;;;;;15.59;39.85;99012.56;4249249;33;33906;-91
2023/03/23 08:12:52;;;;;;;15.68;10.18;;;;;;;15.55;40.11;99011.75;4249154;33;33393;-87
2023/03/23 08:15:21;;;;;;;15.38;9.18;;;;;;;15.94;40.02;99009.63;4236926;33;32776;-86
2023/03/23 08:17:50;;;;;;;17.35;9.80;;;;;;;16.06;40.09;99008.59;4272482;33;34189;-91
2023/03/23 08:20:18;;;;;;;17.55;9.05;;;;;;;16.30;39.50;99012.69;4238042;33;34424;-91
2023/03/23 08:22:52;;;;;;;16.42;9.75;;;;;;;16.57;38.96;99015.81;4250402;33;34016;-87
2023/03/23 08:25:21;;;;;;;;;;;;;;;16.53;37.93;99023.69;4249912;33;34657;-93
2023/03/23 08:27:49;;;;;;;16.58;10.27;;;;;;;16.54;38.51;99017.56;4284336;33;34421;-89
2023/03/23 08:30:19;;;;;;;18.08;10.95;;;;;;;16.44;38.75;99020.34;4260819;33;33641;-92
2023/03/23 08:32:46;;;;;;;16.87;10.30;;;;;;;16.53;39.30;99026.31;4260673;33;33573;-88
2023/03/23 08:35:14;;;;;;;18.05;10.52;;;;;;;16.77;38.85;99027.75;4248815;33;33350;-89
2023/03/23 08:37:42;;;;;;;18.90;11.10;;;;;;;16.61;39.08;99027.97;4237189;33;33003;-86
2023/03/23 08:40:13;;;;;;;15.27;9.68;;;;;;;16.58;39.35;99028.88;4248707;33;33685;-91
2023/03/23 08:42:45;;;;;;;15.02;10.63;;;;;;;16.20;39.27;99031.97;4272599;33;32707;-86
2023/03/23 08:45:14;;;;;;;17.62;9.20;;;;;;;16.41;39.07;99030.88;4249855;33;33537;-91
2023/03/23 08:47:42;;;;;;;14.18;8.85;;;;;;;16.54;39.03;99021.94;4237074;33;32793;-87
2023/03/23 08:50:12;;;;;;;17.87;10.30;;;;;;;16.80;38.71;99029.47;4248938;33;33606;-86
2023/03/23 08:52:39;;;;;;;15.85;8.95;;;;;;;16.95;38.09;99026.63;4248797;33;33960;-90
2023/03/23 08:55:08;;;;;;;14.07;8.13;;;;;;;16.99;38.23;99023.06;4273393;33;34652;-91
2023/03/23 08:57:35;;;;;;;12.63;7.95;;;;;;;16.90;37.98;99031.06;4260907;33;33238;-86
2023/03/23 09:00:15;;;;;;;19.08;8.35;;;;;;;16.99;37.90;99030.91;4272280;33;34239;-86
2023/03/23 09:02:42;;;;;;;14.20;8.65;;;;;;;17.05;37.50;99024.75;4249273;33;33404;-91
2023/03/23 09:05:13;;;;;;;13.30;8.25;;;;;;;17.12;37.40;99022.88;4260423;33;34630;-87
2023/03/23 09:07:43;;;;;;;13.90;9.88;;;;;;;17.13;38.10;99030.72;4248711;33;33387;-91
2023/03/23 09:10:10;;;;;;;14.27;8.98;;;;;;;17.13;38.35;99030.72;4248086;33;34272;-86
2023/03/23 09:12:37;;;;;;;14.45;8.23;;;;;;;17.12;37.82;99028.09;4237108;33;33128;-82
2023/03/23 09:15:08;;;;;;;14.23;8.32;;;;;;;17.23;37.47;99015.69;4273106;33;34903;-93
2023/03/23 09:17:40;;;;;;;20.20;9.18;;;;;;;17.46;37.17;99024.06;4248624;33;34608;-90
2023/03/23 09:20:11;;;;;;;13.48;8.35;;;;;;;17.30;38.41;99027.81;4260001;33;34620;-88
2023/03/23 09:22:39;;;;;;;17.60;8.70;;;;;;;17.49;37.16;99026.59;4248489;33;33903;-91
2023/03/23 09:25:10;;;;;;;14.20;9.13;;;;;;;17.37;37.00;99016.34;4260087;33;34758;-92
2023/03/23 09:27:38;;;;;;;13.62;9.00;;;;;;;17.13;37.75;99022.00;4272933;33;34689;-91
2023/03/23 09:30:10;;;;;;;23.70;9.93;;;;;;;17.74;37.38;99020.94;4259789;33;33702;-91
2023/03/23 09:32:38;;;;;;;19.52;9.82;;;;;;;17.49;37.29;99016.13;4248316;33;33660;-86
2023/03/23 09:35:11;;;;;;;20.77;10.20;;;;;;;17.69;37.79;99017.50;4248209;33;33449;-87
2023/03/23 09:37:39;;;;;;;16.90;9.18;;;;;;;18.04;37.07;99021.28;4271630;33;33079;-86
2023/03/23 09:40:13;;;;;;;16.25;9.38;;;;;;;17.99;38.22;99017.00;4247975;33;34018;-88
2023/03/23 09:42:43;;;;;;;14.30;9.55;;;;;;;17.76;37.11;99013.91;4247658;33;33349;-91
2023/03/23 09:45:37;;;;;;;15.75;9.93;;;;;;;17.58;37.54;99015.13;4272581;33;34222;-92
2023/03/23 09:48:17;;;;;;;14.90;8.98;;;;;;;17.74;38.40;99013.06;4243298;33;34944;-90
2023/03/23 09:50:45;;;;;;;15.90;8.77;;;;;;;18.02;37.92;99007.31;4236147;33;32456;-92
2023/03/23 09:53:23;;;;;;;17.25;9.35;;;;;;;18.52;36.60;98990.50;4259628;33;34201;-88
2023/03/23 09:55:50;;;;;;;15.20;7.80;;;;;;;18.54;36.20;98988.72;4248011;33;33513;-86
2023/03/23 09:58:59;;;;;;;15.95;7.62;;;;;;;18.77;36.33;98990.84;4271832;33;34970;-89
2023/03/23 10:01:35;;;;;;;13.60;8.40;;;;;;;19.11;35.02;98979.53;4259818;33;33918;-90
2023/03/23 10:04:11;;;;;;;16.12;8.77;;;;;;;19.12;35.63;98991.75;4248417;33;33391;-92
2023/03/23 10:06:37;;;;;;;17.50;7.68;;;;;;;18.89;35.83;98995.81;4248222;33;33217;-93
2023/03/23 10:09:05;;;;;;;17.50;8.07;;;;;;;18.88;35.65;98999.34;4236198;33;33990;-87
2023/03/23 10:11:44;;;;;;;11.93;7.70;;;;;;;18.98;35.29;98993.84;4247834;33;34247;-89
2023/03/23 10:14:45;;;;;;;15.98;8.20;;;;;;;18.89;35.28;98990.53;4247404;33;32242;-90
2023/03/23 10:17:29;;;;;;;11.77;7.40;;;;;;;19.10;35.24;98978.66;4283178;33;32899;-86
2023/03/23 10:20:19;;;;;;;12.20;7.90;;;;;;;18.97;35.55;98964.09;4235874;33;34301;-87
2023/03/23 10:23:15;;;;;;;11.38;6.75;;;;;;;19.21;35.17;98970.53;4259268;33;34458;-86
2023/03/23 10:25:57;;;;;;;26.00;7.20;;;;;;;19.21;35.39;98962.63;4258436;33;33662;-91
2023/03/23 10:28:45;;;;;;;10.48;5.53;;;;;;;19.56;34.71;98961.69;4247293;33;34563;-91
2023/03/23 10:31:16;;;;;;;8.18;4.47;;;;;;;19.70;34.74;98956.13;4235393;33;32972;-92
2023/03/23 10:33:48;;;;;;;8.85;4.30;;;;;;;19.80;34.41;98947.03;4247732;33;33925;-92
2023/03/23 10:36:20;;;;;;;7.75;4.15;;;;;;;19.74;34.67;98941.97;4247379;33;33889;-88
2023/03/23 10:39:12;;;;;;;8.73;4.82;;;;;;;20.13;33.15;98941.72;4259272;33;33945;-86
2023/03/23 10:41:39;;;;;;;10.07;4.18;;;;;;;20.30;33.03;98934.16;4235243;33;33650;-89
2023/03/23 10:44:20;;;;;;;8.40;4.20;;;;;;;20.09;32.51;98934.81;4259055;33;33950;-92
2023/03/23 10:47:06;;;;;;;7.15;4.07;;;;;;;20.08;33.41;98935.75;4259062;33;33160;-87
2023/03/23 10:49:45;;;;;;;8.80;3.60;;;;;;;19.91;32.91;98937.06;4258896;33;33862;-86
2023/03/23 10:52:14;;;;;;;6.28;2.95;;;;;;;20.00;33.85;98935.97;4247207;33;33661;-90
2023/03/23 10:54:55;;;;;;;6.43;3.10;;;;;;;20.00;32.43;98927.19;4259789;33;33310;-92
2023/03/23 10:57:28;;;;;;;4.82;2.60;;;;;;;20.05;32.99;98927.94;4273822;33;33382;-91
2023/03/23 11:00:01;;;;;;;7.70;2.20;;;;;;;20.29;31.73;98929.81;4249537;33;33557;-90
2023/03/23 11:02:28;;;;;;;4.72;1.80;;;;;;;20.18;33.09;98934.53;4249458;33;33874;-86
2023/03/23 11:05:04;;;;;;;4.53;2.25;;;;;;;20.49;32.27;98930.97;4260917;33;33561;-92
2023/03/23 11:07:34;;;;;;;5.90;2.22;;;;;;;20.65;31.81;98927.84;4261313;33;33097;-92
2023/03/23 11:10:14;;;;;;;6.22;2.58;;;;;;;20.74;31.77;98926.69;4249102;33;33908;-92
2023/03/23 11:12:45;;;;;;;8.98;2.40;;;;;;;20.87;31.71;98929.75;4249123;33;34833;-89
2023/03/23 11:15:26;;;;;;;11.35;2.62;;;;;;;21.10;31.03;98926.37;4248923;33;33962;-92
2023/03/23 11:18:02;;;;;;;6.47;2.00;;;;;;;20.81;30.31;98922.94;4249146;33;34426;-92
2023/03/23 11:20:33;;;;;;;3.53;1.58;;;;;;;20.87;30.35;98917.47;4260676;33;33802;-88
2023/03/23 11:23:00;;;;;;;10.00;2.20;;;;;;;21.20;30.62;98913.75;4249197;33;34751;-91
2023/03/23 11:25:26;;;;;;;4.80;1.95;;;;;;;21.06;30.79;98908.94;4249075;33;33601;-90
2023/03/23 11:27:53;;;;;;;4.97;1.95;;;;;;;21.14;30.33;98909.56;4249043;33;33034;-86
2023/03/23 11:30:24;;;;;;;5.75;2.17;;;;;;;21.24;29.89;98902.19;4249109;33;33884;-93
2023/03/23 11:32:52;;;;;;;5.22;1.90;;;;;;;21.10;29.98;98913.19;4237556;33;32649;-92
2023/03/23 11:35:22;;;;;;;5.22;2.33;;;;;;;21.22;29.58;98904.88;4249263;33;34425;-91
2023/03/23 11:37:58;;;;;;;4.32;1.87;;;;;;;21.05;29.95;98896.69;4274780;33;34805;-91
2023/03/23 11:40:28;;;;;;;5.60;2.50;;;;;;;20.88;30.05;98908.66;4260630;33;33715;-87
2023/03/23 11:42:59;;;;;;;8.23;1.60;;;;;;;20.75;30.23;98909.97;4261046;33;34510;-88